createdAt,value
2018-09-25T00:01:58.899Z,6.90
2018-09-25T00:04:32.603Z,6.90
2018-09-25T00:07:06.235Z,6.90
2018-09-25T00:09:39.944Z,7.00
2018-09-25T00:12:13.655Z,7.00
2018-09-25T00:14:47.408Z,7.00
2018-09-25T00:17:21.166Z,6.90
2018-09-25T00:19:54.886Z,6.90
2018-09-25T00:22:28.590Z,7.00
2018-09-25T00:25:02.352Z,6.90
2018-09-25T00:27:35.996Z,7.00
2018-09-25T00:30:10.364Z,6.90
2018-09-25T00:32:43.968Z,6.80
2018-09-25T00:35:17.636Z,7.00
2018-09-25T00:37:51.211Z,6.90
2018-09-25T00:40:24.950Z,6.80
2018-09-25T00:42:58.610Z,6.90
2018-09-25T00:45:32.249Z,6.90
2018-09-25T00:48:05.736Z,6.80
2018-09-25T00:50:39.439Z,6.60
2018-09-25T00:53:13.138Z,6.70
2018-09-25T00:55:47.344Z,6.60
2018-09-25T00:58:21.092Z,6.60
2018-09-25T01:00:54.728Z,6.70
2018-09-25T01:03:28.600Z,6.60
2018-09-25T01:06:02.218Z,6.40
2018-09-25T01:08:35.904Z,6.50
2018-09-25T01:11:09.628Z,6.40
2018-09-25T01:13:43.346Z,6.50
2018-09-25T01:16:17.081Z,6.30
2018-09-25T01:18:50.810Z,6.40
2018-09-25T01:21:24.462Z,6.50
2018-09-25T01:23:58.505Z,6.70
2018-09-25T01:26:32.092Z,6.60
2018-09-25T01:29:05.837Z,6.60
2018-09-25T01:31:39.698Z,6.60
2018-09-25T01:34:13.456Z,6.50
2018-09-25T01:36:47.194Z,6.60
2018-09-25T01:39:20.908Z,6.50
2018-09-25T01:41:54.622Z,6.80
2018-09-25T01:44:28.257Z,6.80
2018-09-25T01:47:01.985Z,6.60
2018-09-25T01:49:35.739Z,6.40
2018-09-25T01:52:09.483Z,6.40
2018-09-25T01:54:43.318Z,6.50
2018-09-25T01:57:16.923Z,6.50
2018-09-25T01:59:50.595Z,6.60
2018-09-25T02:02:24.147Z,6.40
2018-09-25T02:04:57.858Z,6.40
2018-09-25T02:07:31.525Z,6.30
2018-09-25T02:10:05.239Z,6.40
2018-09-25T02:12:38.969Z,6.50
2018-09-25T02:15:12.832Z,6.30
2018-09-25T02:17:46.462Z,6.40
2018-09-25T02:20:20.188Z,6.30
2018-09-25T02:22:53.832Z,6.30
2018-09-25T02:25:27.472Z,6.30
2018-09-25T02:28:01.196Z,6.50
2018-09-25T02:30:34.900Z,6.40
2018-09-25T02:33:08.740Z,6.40
2018-09-25T02:35:42.327Z,6.30
2018-09-25T02:38:16.076Z,5.90
2018-09-25T02:40:49.686Z,5.90
2018-09-25T02:43:23.467Z,5.70
2018-09-25T02:45:57.215Z,5.50
2018-09-25T02:48:30.944Z,5.50
2018-09-25T02:51:04.512Z,5.40
2018-09-25T02:53:38.248Z,5.40
2018-09-25T02:56:11.920Z,5.30
2018-09-25T02:58:45.636Z,5.30
2018-09-25T03:01:19.350Z,5.20
2018-09-25T03:03:53.072Z,5.50
2018-09-25T03:06:26.786Z,5.60
2018-09-25T03:09:00.482Z,5.70
2018-09-25T03:11:34.393Z,5.70
2018-09-25T03:14:07.997Z,5.70
2018-09-25T03:16:41.548Z,5.70
2018-09-25T03:19:15.231Z,5.80
2018-09-25T03:21:48.916Z,5.70
2018-09-25T03:24:22.614Z,5.80
2018-09-25T03:26:56.248Z,5.80
2018-09-25T03:29:30.006Z,5.80
2018-09-25T03:32:03.675Z,5.80
2018-09-25T03:34:37.425Z,6.00
2018-09-25T03:37:11.089Z,5.80
2018-09-25T03:39:44.783Z,5.90
2018-09-25T03:42:18.548Z,5.80
2018-09-25T03:44:52.294Z,5.80
2018-09-25T03:47:25.996Z,5.80
2018-09-25T03:49:59.728Z,5.90
2018-09-25T03:52:33.841Z,5.80
2018-09-25T03:55:07.383Z,5.90
2018-09-25T03:57:41.095Z,5.70
2018-09-25T04:00:14.815Z,5.70
2018-09-25T04:02:48.755Z,5.80
2018-09-25T04:05:22.396Z,5.80
2018-09-25T04:07:56.366Z,5.80
2018-09-25T04:10:30.012Z,5.50
2018-09-25T04:13:03.520Z,5.60
2018-09-25T04:15:37.176Z,5.80
2018-09-25T04:18:10.864Z,5.90
2018-09-25T04:20:44.580Z,5.70
2018-09-25T04:23:18.282Z,5.80
2018-09-25T04:25:51.981Z,5.70
2018-09-25T04:28:25.724Z,5.80
2018-09-25T04:30:59.344Z,5.70
2018-09-25T04:33:32.906Z,5.70
2018-09-25T04:36:06.620Z,5.60
2018-09-25T04:38:40.497Z,5.60
2018-09-25T04:41:14.238Z,5.40
2018-09-25T04:43:47.925Z,5.60
2018-09-25T04:46:21.672Z,5.40
2018-09-25T04:48:55.676Z,5.60
2018-09-25T04:51:29.412Z,5.40
2018-09-25T04:54:03.094Z,5.50
2018-09-25T04:56:36.753Z,5.60
2018-09-25T04:59:10.355Z,5.60
2018-09-25T05:01:44.023Z,5.50
2018-09-25T05:04:17.693Z,5.50
2018-09-25T05:06:51.489Z,5.40
2018-09-25T05:09:25.219Z,5.70
2018-09-25T05:11:58.955Z,5.60
2018-09-25T05:14:32.642Z,5.50
2018-09-25T05:17:06.295Z,5.70
2018-09-25T05:19:40.080Z,6.00
2018-09-25T05:22:13.833Z,5.80
2018-09-25T05:24:47.644Z,6.00
2018-09-25T05:27:21.280Z,6.30
2018-09-25T05:29:54.975Z,6.10
2018-09-25T05:32:28.667Z,6.50
2018-09-25T05:35:02.395Z,6.50
2018-09-25T05:37:36.124Z,6.60
2018-09-25T05:40:09.770Z,7.20
2018-09-25T05:42:43.442Z,7.60
2018-09-25T05:45:17.128Z,8.10
2018-09-25T05:47:50.831Z,8.40
2018-09-25T05:50:24.411Z,8.40
2018-09-25T05:52:57.931Z,8.60
2018-09-25T05:55:31.660Z,9.20
2018-09-25T05:58:05.393Z,9.10
2018-09-25T06:00:39.164Z,9.20
2018-09-25T06:03:12.869Z,9.60
2018-09-25T06:05:46.462Z,10.00
2018-09-25T06:08:20.206Z,10.30
2018-09-25T06:10:53.824Z,10.30
2018-09-25T06:13:28.359Z,10.40
2018-09-25T06:16:02.474Z,10.80
2018-09-25T06:18:36.453Z,11.00
2018-09-25T06:21:10.741Z,11.20
2018-09-25T06:23:44.308Z,11.20
2018-09-25T06:26:18.022Z,11.70
2018-09-25T06:28:51.766Z,11.90
2018-09-25T06:31:25.426Z,12.20
2018-09-25T06:33:59.082Z,12.00
2018-09-25T06:36:33.299Z,12.40
2018-09-25T06:39:07.032Z,12.30
2018-09-25T06:41:40.772Z,13.00
2018-09-25T06:44:14.630Z,12.90
2018-09-25T06:46:48.275Z,13.10
2018-09-25T06:49:22.019Z,13.40
2018-09-25T06:51:55.765Z,13.80
2018-09-25T06:54:29.452Z,13.80
2018-09-25T06:57:03.095Z,14.10
2018-09-25T06:59:36.667Z,14.30
2018-09-25T07:02:10.227Z,14.00
2018-09-25T07:04:43.858Z,14.40
2018-09-25T07:07:17.522Z,15.00
2018-09-25T07:09:51.225Z,15.30
2018-09-25T07:12:24.907Z,15.80
2018-09-25T07:14:58.474Z,16.00
2018-09-25T07:17:32.220Z,15.70
2018-09-25T07:20:05.867Z,16.00
2018-09-25T07:22:39.644Z,16.00
2018-09-25T07:25:13.403Z,16.20
2018-09-25T07:27:46.859Z,17.00
2018-09-25T07:30:20.829Z,16.70
2018-09-25T07:32:54.641Z,16.90
2018-09-25T07:35:28.407Z,17.30
2018-09-25T07:38:02.007Z,17.40
2018-09-25T07:40:35.712Z,17.30
2018-09-25T07:43:09.335Z,17.50
2018-09-25T07:45:43.162Z,18.00
2018-09-25T07:48:16.962Z,18.60
2018-09-25T07:50:50.647Z,18.70
2018-09-25T07:53:24.187Z,18.50
2018-09-25T07:55:57.879Z,18.50
2018-09-25T07:58:31.451Z,18.60
2018-09-25T08:01:05.171Z,18.60
2018-09-25T08:03:39.050Z,18.90
2018-09-25T08:06:12.983Z,18.60
2018-09-25T08:08:46.669Z,19.60
2018-09-25T08:11:20.520Z,19.20
2018-09-25T08:13:54.117Z,19.70
2018-09-25T08:16:27.973Z,19.40
2018-09-25T08:19:01.688Z,20.00
2018-09-25T08:21:35.397Z,20.50
2018-09-25T08:24:09.092Z,20.90
2018-09-25T08:26:42.845Z,20.20
2018-09-25T08:29:16.895Z,20.90
2018-09-25T08:31:50.601Z,20.70
2018-09-25T08:34:24.396Z,21.10
2018-09-25T08:36:57.978Z,20.40
2018-09-25T08:39:31.651Z,21.20
2018-09-25T08:42:05.422Z,20.80
2018-09-25T08:44:39.038Z,21.90
2018-09-25T08:47:12.980Z,20.50
2018-09-25T08:49:46.740Z,18.40
2018-09-25T08:52:20.448Z,19.00
2018-09-25T08:54:55.078Z,18.20
2018-09-25T08:57:28.692Z,16.50
2018-09-25T09:00:02.445Z,15.60
2018-09-25T09:02:36.180Z,18.20
2018-09-25T09:05:09.851Z,17.40
2018-09-25T09:07:43.609Z,16.20
2018-09-25T09:10:17.313Z,16.70
2018-09-25T09:12:50.841Z,16.90
2018-09-25T09:15:24.555Z,18.90
2018-09-25T09:17:58.322Z,19.80
2018-09-25T09:20:32.072Z,19.40
2018-09-25T09:23:05.731Z,18.20
2018-09-25T09:25:39.372Z,17.20
2018-09-25T09:28:13.099Z,17.10
2018-09-25T09:30:46.653Z,19.60
2018-09-25T09:33:20.288Z,21.00
2018-09-25T09:35:53.911Z,21.20
2018-09-25T09:38:27.558Z,19.20
2018-09-25T09:41:01.364Z,16.70
2018-09-25T09:43:35.032Z,17.10
2018-09-25T09:46:08.837Z,17.90
2018-09-25T09:48:42.432Z,16.80
2018-09-25T09:51:16.155Z,16.20
2018-09-25T09:53:49.846Z,15.50
2018-09-25T09:56:23.597Z,15.20
2018-09-25T09:58:57.197Z,17.90
2018-09-25T10:01:30.941Z,17.40
2018-09-25T10:04:04.803Z,15.90
2018-09-25T10:06:38.572Z,15.70
2018-09-25T10:09:14.294Z,15.80
2018-09-25T10:11:48.349Z,17.90
2018-09-25T10:14:22.283Z,16.70
2018-09-25T10:16:55.879Z,16.70
2018-09-25T10:19:29.427Z,15.90
2018-09-25T10:22:03.099Z,16.20
2018-09-25T10:24:36.836Z,17.90
2018-09-25T10:27:10.809Z,19.80
2018-09-25T10:29:44.513Z,19.60
2018-09-25T10:32:18.168Z,18.20
2018-09-25T10:34:51.740Z,16.40
2018-09-25T10:37:25.341Z,16.60
2018-09-25T10:39:59.018Z,16.60
2018-09-25T10:42:32.696Z,18.10
2018-09-25T10:45:06.437Z,18.50
2018-09-25T10:47:40.118Z,18.70
2018-09-25T10:50:13.804Z,20.70
2018-09-25T10:52:47.554Z,21.20
2018-09-25T10:55:21.278Z,21.30
2018-09-25T10:57:54.804Z,18.90
2018-09-25T11:00:28.407Z,17.70
2018-09-25T11:03:02.300Z,18.20
2018-09-25T11:05:35.943Z,19.90
2018-09-25T11:08:09.703Z,21.30
2018-09-25T11:10:43.470Z,19.30
2018-09-25T11:13:18.535Z,18.30
2018-09-25T11:15:52.217Z,17.30
2018-09-25T11:18:25.915Z,19.10
2018-09-25T11:20:59.667Z,20.90
2018-09-25T11:23:33.319Z,22.40
2018-09-25T11:26:07.747Z,23.30
2018-09-25T11:28:42.071Z,22.40
2018-09-25T11:31:15.827Z,22.10
2018-09-25T11:33:49.533Z,22.60
2018-09-25T11:36:23.220Z,21.30
2018-09-25T11:38:56.956Z,20.10
2018-09-25T11:41:30.602Z,20.70
2018-09-25T11:44:04.244Z,18.90
2018-09-25T11:46:38.050Z,17.50
2018-09-25T11:49:11.726Z,17.70
2018-09-25T11:51:45.444Z,20.00
2018-09-25T11:54:19.102Z,20.50
2018-09-25T11:56:52.732Z,21.20
2018-09-25T11:59:26.352Z,21.90
2018-09-25T12:02:00.127Z,21.20
2018-09-25T12:04:33.743Z,19.50
2018-09-25T12:07:07.462Z,18.10
2018-09-25T12:09:40.966Z,18.10
2018-09-25T12:12:14.764Z,18.90
2018-09-25T12:14:48.388Z,20.60
2018-09-25T12:17:22.098Z,19.40
2018-09-25T12:19:55.707Z,18.70
2018-09-25T12:22:29.302Z,17.70
2018-09-25T12:25:02.784Z,16.80
2018-09-25T12:27:36.716Z,16.80
2018-09-25T12:30:10.833Z,18.00
2018-09-25T12:32:44.568Z,19.60
2018-09-25T12:35:18.288Z,20.10
2018-09-25T12:37:51.982Z,20.20
2018-09-25T12:40:25.548Z,20.60
2018-09-25T12:42:59.279Z,21.20
2018-09-25T12:45:32.882Z,20.50
2018-09-25T12:48:06.545Z,20.20
2018-09-25T12:50:40.157Z,20.10
2018-09-25T12:53:13.844Z,21.00
2018-09-25T12:55:47.554Z,21.10
2018-09-25T12:58:21.306Z,20.60
2018-09-25T13:00:55.041Z,18.20
2018-09-25T13:03:28.788Z,17.40
2018-09-25T13:06:02.552Z,17.00
2018-09-25T13:08:36.268Z,17.40
2018-09-25T13:11:10.008Z,17.80
2018-09-25T13:13:43.780Z,16.80
2018-09-25T13:16:17.314Z,16.70
2018-09-25T13:18:51.073Z,16.10
2018-09-25T13:21:24.731Z,16.60
2018-09-25T13:23:58.586Z,17.20
2018-09-25T13:26:32.156Z,18.00
2018-09-25T13:29:05.816Z,17.60
2018-09-25T13:31:39.456Z,17.90
2018-09-25T13:34:13.007Z,17.60
2018-09-25T13:36:46.753Z,18.20
2018-09-25T13:39:20.399Z,18.70
2018-09-25T13:41:54.135Z,18.80
2018-09-25T13:44:27.943Z,18.70
2018-09-25T13:47:01.616Z,18.10
2018-09-25T13:49:35.353Z,18.90
2018-09-25T13:52:09.077Z,18.20
2018-09-25T13:54:42.800Z,17.10
2018-09-25T13:57:16.436Z,16.80
2018-09-25T13:59:50.164Z,16.90
2018-09-25T14:02:23.813Z,16.80
2018-09-25T14:04:57.544Z,16.60
2018-09-25T14:07:31.127Z,16.70
2018-09-25T14:10:04.636Z,17.10
2018-09-25T14:12:38.220Z,17.50
2018-09-25T14:15:12.121Z,17.60
2018-09-25T14:17:45.921Z,17.90
2018-09-25T14:20:19.564Z,17.70
2018-09-25T14:22:53.150Z,17.50
2018-09-25T14:25:26.796Z,17.50
2018-09-25T14:28:00.942Z,17.30
2018-09-25T14:30:34.699Z,17.10
2018-09-25T14:33:08.460Z,17.30
2018-09-25T14:35:42.176Z,17.20
2018-09-25T14:38:15.843Z,17.00
2018-09-25T14:40:49.471Z,16.90
2018-09-25T14:43:23.134Z,16.80
2018-09-25T14:45:57.023Z,16.40
2018-09-25T14:48:30.782Z,16.30
2018-09-25T14:51:04.485Z,16.20
2018-09-25T14:53:38.250Z,16.30
2018-09-25T14:56:11.842Z,15.70
2018-09-25T14:58:45.451Z,16.00
2018-09-25T15:01:19.100Z,15.50
2018-09-25T15:03:52.661Z,15.50
2018-09-25T15:06:26.347Z,15.40
2018-09-25T15:09:00.148Z,15.50
2018-09-25T15:11:33.937Z,15.70
2018-09-25T15:14:07.529Z,15.50
2018-09-25T15:16:41.124Z,15.50
2018-09-25T15:19:14.635Z,15.10
2018-09-25T15:21:48.555Z,15.10
2018-09-25T15:24:22.044Z,14.90
2018-09-25T15:26:56.440Z,14.60
2018-09-25T15:29:29.999Z,15.00
2018-09-25T15:32:03.661Z,14.90
2018-09-25T15:34:37.387Z,14.90
2018-09-25T15:37:11.088Z,14.80
2018-09-25T15:39:44.841Z,14.70
2018-09-25T15:42:18.391Z,14.90
2018-09-25T15:44:52.130Z,15.20
2018-09-25T15:47:26.587Z,15.00
2018-09-25T15:50:00.893Z,14.80
2018-09-25T15:52:34.767Z,14.70
2018-09-25T15:55:08.471Z,14.70
2018-09-25T15:57:42.219Z,14.60
2018-09-25T16:00:15.902Z,14.50
2018-09-25T16:02:49.652Z,14.40
2018-09-25T16:05:23.360Z,14.30
2018-09-25T16:07:57.104Z,14.10
2018-09-25T16:10:31.548Z,14.10
2018-09-25T16:13:05.327Z,14.00
2018-09-25T16:15:39.024Z,14.00
2018-09-25T16:18:12.809Z,14.00
2018-09-25T16:20:48.037Z,14.00
2018-09-25T16:23:21.692Z,13.70
2018-09-25T16:25:55.348Z,13.80
2018-09-25T16:28:29.792Z,13.90
2018-09-25T16:31:03.560Z,13.80
2018-09-25T16:33:37.287Z,13.90
2018-09-25T16:36:11.044Z,13.70
2018-09-25T16:38:44.776Z,13.60
2018-09-25T16:41:18.467Z,13.50
2018-09-25T16:43:52.248Z,13.40
2018-09-25T16:46:26.109Z,13.20
2018-09-25T16:48:59.697Z,13.10
2018-09-25T16:51:33.480Z,13.10
2018-09-25T16:54:07.018Z,13.00
2018-09-25T16:56:40.740Z,13.00
2018-09-25T16:59:14.456Z,12.80
2018-09-25T17:01:48.751Z,12.80
2018-09-25T17:04:22.440Z,12.90
2018-09-25T17:07:03.249Z,12.70
2018-09-25T17:09:36.993Z,12.60
2018-09-25T17:12:12.532Z,12.60
2018-09-25T17:14:46.220Z,12.60
2018-09-25T17:17:19.925Z,12.40
2018-09-25T17:19:53.687Z,12.40
2018-09-25T17:22:28.113Z,12.40
2018-09-25T17:25:02.251Z,12.30
2018-09-25T17:27:35.822Z,12.20
2018-09-25T17:30:09.891Z,12.20
2018-09-25T17:32:43.521Z,12.00
2018-09-25T17:35:17.187Z,12.00
2018-09-25T17:37:50.879Z,11.90
2018-09-25T17:40:24.730Z,12.10
2018-09-25T17:42:58.522Z,11.90
2018-09-25T17:45:32.252Z,11.70
2018-09-25T17:48:05.979Z,11.70
2018-09-25T17:50:39.751Z,11.80
2018-09-25T17:53:13.269Z,11.50
2018-09-25T17:55:47.054Z,11.50
2018-09-25T17:58:20.880Z,11.60
2018-09-25T18:00:54.668Z,11.60
2018-09-25T18:03:28.324Z,11.50
2018-09-25T18:06:02.813Z,11.40
2018-09-25T18:08:36.451Z,11.20
2018-09-25T18:11:10.233Z,10.80
2018-09-25T18:13:43.883Z,10.90
2018-09-25T18:16:17.600Z,11.00
2018-09-25T18:18:51.351Z,11.00
2018-09-25T18:21:25.153Z,11.00
2018-09-25T18:23:58.938Z,10.60
2018-09-25T18:26:32.639Z,10.80
2018-09-25T18:29:06.448Z,10.70
2018-09-25T18:31:40.112Z,10.90
2018-09-25T18:34:14.460Z,10.70
2018-09-25T18:36:48.297Z,10.70
2018-09-25T18:39:21.929Z,10.60
2018-09-25T18:41:55.744Z,10.70
2018-09-25T18:44:29.456Z,10.20
2018-09-25T18:47:03.559Z,10.10
2018-09-25T18:49:41.993Z,10.10
2018-09-25T18:52:15.674Z,10.00
2018-09-25T18:54:49.493Z,10.10
2018-09-25T18:57:23.225Z,10.20
2018-09-25T18:59:56.948Z,10.10
2018-09-25T19:02:30.696Z,9.80
2018-09-25T19:05:04.386Z,10.00
2018-09-25T19:07:37.989Z,10.30
2018-09-25T19:10:11.729Z,10.30
2018-09-25T19:12:45.392Z,10.40
2018-09-25T19:15:19.068Z,10.20
2018-09-25T19:17:52.708Z,9.90
2018-09-25T19:20:26.419Z,10.00
2018-09-25T19:23:00.123Z,10.00
2018-09-25T19:25:34.336Z,9.70
2018-09-25T19:28:08.137Z,9.60
2018-09-25T19:30:41.711Z,9.50
2018-09-25T19:33:15.428Z,9.60
2018-09-25T19:35:49.043Z,9.70
2018-09-25T19:38:22.676Z,9.60
2018-09-25T19:40:56.468Z,9.50
2018-09-25T19:43:30.047Z,9.50
2018-09-25T19:46:03.823Z,9.60
2018-09-25T19:48:37.572Z,9.40
2018-09-25T19:51:11.220Z,9.40
2018-09-25T19:53:44.976Z,9.50
2018-09-25T19:56:18.801Z,9.40
2018-09-25T19:58:52.454Z,9.30
2018-09-25T20:01:26.197Z,9.30
2018-09-25T20:03:59.849Z,9.30
2018-09-25T20:06:33.599Z,9.30
2018-09-25T20:09:07.706Z,9.20
2018-09-25T20:11:41.598Z,9.00
2018-09-25T20:14:16.121Z,9.20
2018-09-25T20:16:49.668Z,9.10
2018-09-25T20:19:23.373Z,8.90
2018-09-25T20:21:56.976Z,9.00
2018-09-25T20:24:30.524Z,9.10
2018-09-25T20:27:04.530Z,9.00
2018-09-25T20:29:38.180Z,9.00
2018-09-25T20:32:12.298Z,9.00
2018-09-25T20:34:45.965Z,9.00
2018-09-25T20:37:19.634Z,9.00
2018-09-25T20:39:53.539Z,8.90
2018-09-25T20:42:27.224Z,8.90
2018-09-25T20:45:00.932Z,9.00
2018-09-25T20:47:34.667Z,9.00
2018-09-25T20:50:08.436Z,8.90
2018-09-25T20:52:42.196Z,9.00
2018-09-25T20:55:16.010Z,8.80
2018-09-25T20:57:49.539Z,8.70
2018-09-25T21:00:23.248Z,8.90
2018-09-25T21:02:57.139Z,8.90
2018-09-25T21:05:30.842Z,8.80
2018-09-25T21:08:04.449Z,8.70
2018-09-25T21:10:38.393Z,8.60
2018-09-25T21:13:12.282Z,8.30
2018-09-25T21:15:46.159Z,8.70
2018-09-25T21:18:20.186Z,8.80
2018-09-25T21:20:54.348Z,8.70
2018-09-25T21:23:27.957Z,8.80
2018-09-25T21:26:01.570Z,8.70
2018-09-25T21:28:35.194Z,8.50
2018-09-25T21:31:08.856Z,8.50
2018-09-25T21:33:42.459Z,8.60
2018-09-25T21:36:16.412Z,8.40
2018-09-25T21:38:50.386Z,8.30
2018-09-25T21:41:23.946Z,8.40
2018-09-25T21:43:57.488Z,8.20
2018-09-25T21:46:31.196Z,8.20
2018-09-25T21:49:04.897Z,8.20
2018-09-25T21:51:38.932Z,8.20
2018-09-25T21:54:12.435Z,8.00
2018-09-25T21:56:46.134Z,7.90
2018-09-25T21:59:19.882Z,7.80
2018-09-25T22:01:53.610Z,8.00
2018-09-25T22:04:27.310Z,7.90
2018-09-25T22:07:01.105Z,7.90
2018-09-25T22:09:41.345Z,8.30
2018-09-25T22:12:15.065Z,8.40
2018-09-25T22:14:48.827Z,8.00
2018-09-25T22:17:22.502Z,8.20
2018-09-25T22:19:56.203Z,8.10
2018-09-25T22:22:29.955Z,7.90
2018-09-25T22:25:04.015Z,8.00
2018-09-25T22:27:37.836Z,8.00
2018-09-25T22:30:11.983Z,7.80
2018-09-25T22:32:45.667Z,7.90
2018-09-25T22:35:19.344Z,7.60
2018-09-25T22:37:53.128Z,7.70
2018-09-25T22:40:26.782Z,7.70
2018-09-25T22:43:00.592Z,7.60
2018-09-25T22:45:34.311Z,7.70
2018-09-25T22:48:08.036Z,7.60
2018-09-25T22:50:41.628Z,7.40
2018-09-25T22:53:15.708Z,7.60
2018-09-25T22:55:49.440Z,7.60
2018-09-25T22:58:23.114Z,7.60
2018-09-25T23:00:56.966Z,7.40
2018-09-25T23:03:30.612Z,7.40
2018-09-25T23:06:04.160Z,7.40
2018-09-25T23:08:37.893Z,7.40
2018-09-25T23:11:11.816Z,7.60
2018-09-25T23:13:45.880Z,7.30
2018-09-25T23:16:19.370Z,7.30
2018-09-25T23:18:53.123Z,7.30
2018-09-25T23:21:26.708Z,7.30
2018-09-25T23:24:01.049Z,7.20
2018-09-25T23:26:34.932Z,7.20
2018-09-25T23:29:08.572Z,7.10
2018-09-25T23:31:42.092Z,7.10
2018-09-25T23:34:16.095Z,7.00
2018-09-25T23:36:49.863Z,7.00
2018-09-25T23:39:23.496Z,7.00
2018-09-25T23:44:01.924Z,7.10
2018-09-25T23:46:42.757Z,7.00
2018-09-25T23:49:16.592Z,7.00
2018-09-25T23:51:54.616Z,7.10
2018-09-25T23:54:30.146Z,7.10
2018-09-25T23:57:10.912Z,7.20
